createdAt,value
2018-03-30T00:02:08.909Z,16.17
2018-03-30T00:04:36.449Z,14.75
2018-03-30T00:07:07.825Z,20.23
2018-03-30T00:09:47.193Z,18.00
2018-03-30T00:12:15.481Z,15.80
2018-03-30T00:14:42.998Z,16.08
2018-03-30T00:17:10.518Z,19.65
2018-03-30T00:19:38.016Z,16.05
2018-03-30T00:22:05.529Z,14.57
2018-03-30T00:24:33.043Z,14.95
2018-03-30T00:27:00.771Z,16.75
2018-03-30T00:29:28.290Z,15.55
2018-03-30T00:31:56.631Z,14.68
2018-03-30T00:34:24.161Z,16.75
2018-03-30T00:36:51.842Z,19.73
2018-03-30T00:39:19.358Z,18.15
2018-03-30T00:41:46.887Z,21.20
2018-03-30T00:44:14.444Z,16.35
2018-03-30T00:46:41.961Z,18.55
2018-03-30T00:49:09.488Z,19.83
2018-03-30T00:51:37.050Z,18.35
2018-03-30T00:54:04.569Z,21.05
2018-03-30T00:56:32.898Z,19.33
2018-03-30T00:59:00.523Z,22.92
2018-03-30T01:01:28.920Z,22.40
2018-03-30T01:03:57.199Z,24.40
2018-03-30T01:06:24.740Z,18.25
2018-03-30T01:08:52.284Z,21.80
2018-03-30T01:11:19.811Z,21.10
2018-03-30T01:13:47.343Z,24.40
2018-03-30T01:16:14.855Z,24.67
2018-03-30T01:18:42.374Z,23.05
2018-03-30T01:21:09.899Z,28.35
2018-03-30T01:23:37.403Z,23.33
2018-03-30T01:26:04.920Z,22.83
2018-03-30T01:28:33.202Z,21.85
2018-03-30T01:31:01.476Z,22.35
2018-03-30T01:33:29.786Z,23.92
2018-03-30T01:35:57.328Z,27.62
2018-03-30T01:38:24.907Z,28.62
2018-03-30T01:40:52.431Z,25.35
2018-03-30T01:43:19.967Z,29.25
2018-03-30T01:45:47.522Z,25.42
2018-03-30T01:48:15.020Z,27.77
2018-03-30T01:50:42.534Z,24.90
2018-03-30T01:53:10.066Z,22.70
2018-03-30T01:55:37.572Z,23.52
2018-03-30T01:58:05.090Z,25.02
2018-03-30T02:00:32.600Z,24.83
2018-03-30T02:03:00.117Z,26.40
2018-03-30T02:05:27.635Z,23.23
2018-03-30T02:07:55.150Z,24.37
2018-03-30T02:10:22.720Z,25.88
2018-03-30T02:12:50.259Z,25.58
2018-03-30T02:15:17.774Z,24.33
2018-03-30T02:17:46.044Z,24.02
2018-03-30T02:20:14.315Z,30.35
2018-03-30T02:22:41.820Z,26.67
2018-03-30T02:25:09.343Z,27.70
2018-03-30T02:27:36.858Z,30.33
2018-03-30T02:30:04.384Z,26.98
2018-03-30T02:32:31.923Z,28.35
2018-03-30T02:34:59.441Z,29.08
2018-03-30T02:37:26.966Z,27.10
2018-03-30T02:39:54.486Z,26.67
2018-03-30T02:42:22.009Z,29.05
2018-03-30T02:44:49.559Z,26.00
2018-03-30T02:47:17.065Z,29.25
2018-03-30T02:49:44.599Z,28.62
2018-03-30T02:52:12.108Z,33.03
2018-03-30T02:54:39.634Z,28.25
2018-03-30T02:57:07.153Z,28.02
2018-03-30T02:59:34.680Z,30.17
2018-03-30T03:02:02.942Z,27.52
2018-03-30T03:04:31.211Z,27.23
2018-03-30T03:06:58.745Z,31.98
2018-03-30T03:09:26.258Z,31.52
2018-03-30T03:11:53.779Z,28.83
2018-03-30T03:14:21.292Z,32.08
2018-03-30T03:16:48.794Z,27.98
2018-03-30T03:19:16.320Z,29.35
2018-03-30T03:21:43.820Z,36.30
2018-03-30T03:24:11.330Z,28.33
2018-03-30T03:26:38.847Z,30.67
2018-03-30T03:29:06.356Z,30.58
